Time;durP1;ratioP1;P1;durP2;ratioP2;P2;SDS_P1;SDS_P2;PMS_P1;PMS_P2;Temp;Humidity;BMP_temperature;BMP_pressure;BME280_temperature;BME280_humidity;BME280_pressure;Samples;Min_cycle;Max_cycle;Signal;HPM_P1;HPM_P2
2021/12/05 00:21:57;;;;;;;3.63;2.00;;;18.80;54.50;;;;;;4977168;28;20201;-22
2021/12/05 00:24:17;;;;;;;4.30;1.70;;;18.70;54.50;;;;;;4976436;28;20214;-26
2021/12/05 00:26:50;;;;;;;3.77;1.53;;;18.70;54.70;;;;;;4959593;28;20222;-22
2021/12/05 00:29:32;;;;;;;3.50;2.13;;;18.70;54.80;;;;;;4976975;28;20191;-22
2021/12/05 00:32:05;;;;;;;5.20;1.80;;;18.60;55.20;;;;;;4977896;28;20301;-23
2021/12/05 00:46:03;;;;;;;2.87;1.60;;;18.40;55.40;;;;;;4949269;28;20293;-23
2021/12/05 01:10:13;;;;;;;3.33;1.40;;;18.20;55.10;;;;;;4979569;28;20204;-24
2021/12/05 01:13:13;;;;;;;2.73;1.40;;;18.30;54.90;;;;;;4978557;28;20301;-23
2021/12/05 01:15:32;;;;;;;2.97;1.70;;;18.30;54.80;;;;;;4978531;28;20607;-22
2021/12/05 01:18:11;;;;;;;2.70;1.47;;;18.30;54.70;;;;;;4979027;28;20212;-23
2021/12/05 01:20:41;;;;;;;3.17;1.80;;;18.30;54.60;;;;;;4979265;28;20198;-21
2021/12/05 01:23:40;;;;;;;2.30;1.80;;;18.30;54.60;;;;;;4961837;28;20269;-25
2021/12/05 01:26:06;;;;;;;4.50;1.53;;;18.30;54.40;;;;;;4978790;28;20218;-22
2021/12/05 01:31:45;;;;;;;3.83;1.77;;;18.30;54.30;;;;;;4978756;28;20209;-25
2021/12/05 01:58:58;;;;;;;3.23;1.70;;;18.30;54.00;;;;;;4959540;29;20210;-21
2021/12/05 02:31:43;;;;;;;3.30;1.50;;;18.00;54.10;;;;;;4908902;28;20215;-21
2021/12/05 02:39:49;;;;;;;2.50;1.33;;;17.90;54.50;;;;;;4978273;28;20300;-24
2021/12/05 02:42:27;;;;;;;3.17;1.70;;;17.90;54.50;;;;;;4961183;28;20199;-25
2021/12/05 02:44:53;;;;;;;2.60;1.43;;;17.80;54.50;;;;;;4961265;28;20210;-23
2021/12/05 02:47:22;;;;;;;2.40;1.50;;;17.80;54.60;;;;;;4977165;28;20229;-23
2021/12/05 02:49:52;;;;;;;2.03;1.30;;;17.80;54.60;;;;;;4977559;28;20292;-24
2021/12/05 02:52:26;;;;;;;2.23;1.37;;;17.70;54.60;;;;;;4961021;28;20200;-22
2021/12/05 02:54:59;;;;;;;3.00;1.40;;;17.70;54.70;;;;;;4977751;28;20586;-22
2021/12/05 02:57:50;;;;;;;3.67;1.70;;;17.70;55.10;;;;;;4980060;28;20205;-22
2021/12/05 03:00:18;;;;;;;2.73;1.50;;;17.70;54.80;;;;;;4981358;28;20251;-21
2021/12/05 03:02:47;;;;;;;3.60;1.40;;;17.70;54.80;;;;;;4965060;28;20262;-25
2021/12/05 03:05:18;;;;;;;2.47;1.53;;;17.60;54.80;;;;;;4980939;28;20287;-25
2021/12/05 03:07:49;;;;;;;2.90;1.30;;;17.60;54.90;;;;;;4981022;28;20189;-23
2021/12/05 03:10:19;;;;;;;2.73;1.43;;;17.60;54.90;;;;;;4981443;28;20201;-26
2021/12/05 03:12:46;;;;;;;2.23;1.30;;;17.60;54.90;;;;;;4981586;28;20194;-23
2021/12/05 03:15:14;;;;;;;2.97;1.50;;;17.60;54.90;;;;;;4964495;28;20208;-22
2021/12/05 03:17:41;;;;;;;4.57;1.40;;;17.60;54.90;;;;;;4964551;28;20273;-23
2021/12/05 03:20:08;;;;;;;3.57;1.60;;;17.50;55.00;;;;;;4964159;28;20210;-26
2021/12/05 03:22:34;;;;;;;2.03;1.30;;;17.50;55.00;;;;;;4981220;28;20287;-25
2021/12/05 03:25:00;;;;;;;2.63;1.60;;;17.50;54.90;;;;;;4981163;28;20496;-25
2021/12/05 03:27:28;;;;;;;2.80;1.33;;;17.50;54.90;;;;;;4980623;28;20227;-24
2021/12/05 03:29:54;;;;;;;2.30;1.20;;;17.50;54.90;;;;;;4980481;28;20215;-28
2021/12/05 03:32:20;;;;;;;3.70;1.70;;;17.50;54.90;;;;;;4963047;28;20193;-23
2021/12/05 03:34:45;;;;;;;3.07;1.57;;;17.40;54.90;;;;;;4981130;28;20198;-22
2021/12/05 03:37:11;;;;;;;2.80;1.30;;;17.40;54.90;;;;;;4963989;28;20283;-20
2021/12/05 03:39:37;;;;;;;3.20;1.40;;;17.40;55.10;;;;;;4981311;28;20208;-24
2021/12/05 03:42:04;;;;;;;2.83;1.40;;;17.40;55.10;;;;;;4980836;28;20258;-23
2021/12/05 03:44:37;;;;;;;3.37;1.43;;;17.40;55.10;;;;;;4963958;28;20300;-22
2021/12/05 03:47:05;;;;;;;2.90;1.40;;;17.40;55.10;;;;;;4963512;28;20236;-23
2021/12/05 03:49:32;;;;;;;2.93;1.47;;;17.40;54.90;;;;;;4963756;28;20200;-22
2021/12/05 03:52:07;;;;;;;2.50;1.43;;;17.30;55.00;;;;;;4981425;28;20609;-23
2021/12/05 03:54:33;;;;;;;2.30;1.50;;;17.30;55.10;;;;;;4963892;28;20547;-22
2021/12/05 03:57:00;;;;;;;3.77;1.50;;;17.30;55.20;;;;;;4980657;28;20195;-21
2021/12/05 03:59:28;;;;;;;2.13;1.30;;;17.30;55.20;;;;;;4980649;28;20474;-22
2021/12/05 04:01:55;;;;;;;2.70;1.43;;;17.20;55.30;;;;;;4963580;28;20586;-24
2021/12/05 04:04:20;;;;;;;2.30;1.30;;;17.20;55.30;;;;;;4963786;28;20664;-25
2021/12/05 04:06:47;;;;;;;2.43;1.43;;;17.20;55.40;;;;;;4979987;28;20225;-24
2021/12/05 04:09:14;;;;;;;2.30;1.30;;;17.10;55.30;;;;;;4963716;28;20208;-22
2021/12/05 04:11:45;;;;;;;2.03;1.40;;;17.10;55.40;;;;;;4980511;28;20528;-23
2021/12/05 04:14:13;;;;;;;2.53;1.20;;;17.00;55.50;;;;;;4963157;28;20206;-25
2021/12/05 04:16:41;;;;;;;3.40;1.63;;;17.00;55.50;;;;;;4963244;28;20609;-23
2021/12/05 04:19:08;;;;;;;2.73;1.30;;;17.00;55.60;;;;;;4979881;28;20207;-23
2021/12/05 04:21:36;;;;;;;2.37;1.00;;;17.00;55.70;;;;;;4980276;28;20196;-24
2021/12/05 04:24:04;;;;;;;2.53;1.20;;;17.00;55.70;;;;;;4980543;28;20655;-24
2021/12/05 04:26:33;;;;;;;3.37;1.20;;;16.90;55.70;;;;;;4963373;28;20220;-20
2021/12/05 04:28:59;;;;;;;2.77;1.47;;;16.90;55.70;;;;;;4979853;28;20199;-21
2021/12/05 04:31:24;;;;;;;2.60;1.47;;;16.90;55.80;;;;;;4979487;28;20216;-24
2021/12/05 04:33:51;;;;;;;2.23;1.20;;;16.90;55.70;;;;;;4962663;28;20203;-23
2021/12/05 04:36:19;;;;;;;2.23;1.37;;;16.90;56.00;;;;;;4980230;28;20210;-26
2021/12/05 04:38:46;;;;;;;4.27;1.30;;;16.80;56.00;;;;;;4980473;28;20627;-22
2021/12/05 04:41:12;;;;;;;2.93;1.23;;;16.80;55.90;;;;;;4979695;28;20197;-23
2021/12/05 04:43:38;;;;;;;2.63;1.37;;;16.70;56.00;;;;;;4979868;28;20196;-21
2021/12/05 04:46:15;;;;;;;1.53;1.03;;;16.70;56.00;;;;;;4962674;28;20228;-24
2021/12/05 04:48:46;;;;;;;2.00;0.93;;;16.70;56.10;;;;;;4962875;28;20214;-24
2021/12/05 04:51:11;;;;;;;3.77;1.40;;;16.70;56.00;;;;;;4962509;28;20245;-25
2021/12/05 04:53:41;;;;;;;2.00;1.20;;;16.70;56.10;;;;;;4962472;28;20187;-20
2021/12/05 04:56:07;;;;;;;2.03;1.30;;;16.60;56.00;;;;;;4962407;28;20200;-24
2021/12/05 04:58:33;;;;;;;3.23;1.20;;;16.60;56.60;;;;;;4963102;28;20206;-22
2021/12/05 05:01:00;;;;;;;1.63;1.07;;;16.60;56.20;;;;;;4979391;28;20194;-21
2021/12/05 05:03:28;;;;;;;2.93;1.30;;;16.60;56.30;;;;;;4962850;28;20206;-20
2021/12/05 05:06:04;;;;;;;2.37;1.00;;;16.60;56.30;;;;;;4979644;28;20487;-24
2021/12/05 05:08:31;;;;;;;3.37;1.40;;;16.50;56.30;;;;;;4979364;28;20507;-23
2021/12/05 05:11:08;;;;;;;2.73;1.20;;;16.50;56.30;;;;;;4979345;28;20285;-22
2021/12/05 05:13:34;;;;;;;2.27;1.37;;;16.50;56.40;;;;;;4979255;28;20306;-24
2021/12/05 05:16:01;;;;;;;3.33;1.20;;;16.40;56.40;;;;;;4978945;28;20186;-21
2021/12/05 05:18:29;;;;;;;1.63;0.90;;;16.40;56.40;;;;;;4962052;28;20210;-21
2021/12/05 05:21:08;;;;;;;2.50;1.20;;;16.40;56.50;;;;;;4962067;28;20190;-22
2021/12/05 05:50:24;;;;;;;2.23;1.00;;;20.20;47.40;;;;;;4929668;28;20224;-23
2021/12/05 05:52:50;;;;;;;1.50;1.07;;;20.30;47.10;;;;;;4961397;28;20300;-22
2021/12/05 05:55:18;;;;;;;1.87;1.03;;;20.50;46.80;;;;;;4962018;28;20257;-22
2021/12/05 05:57:57;;;;;;;1.50;1.00;;;20.80;46.40;;;;;;4961493;28;20209;-24
2021/12/05 06:00:31;;;;;;;1.93;1.00;;;21.30;46.20;;;;;;4961616;28;20249;-23
2021/12/05 06:05:42;;;;;;;2.70;1.20;;;21.90;44.90;;;;;;4978125;28;20227;-23
2021/12/05 06:08:09;;;;;;;2.07;1.10;;;22.20;44.40;;;;;;4977893;28;20213;-24
2021/12/05 06:10:34;;;;;;;1.47;1.10;;;22.40;44.10;;;;;;4960819;28;20248;-23
2021/12/05 06:13:00;;;;;;;2.60;1.30;;;22.50;44.40;;;;;;4978024;28;20243;-24
2021/12/05 06:15:28;;;;;;;2.40;1.27;;;22.50;43.90;;;;;;4978186;28;20231;-21
2021/12/05 06:17:54;;;;;;;2.03;1.10;;;22.90;43.70;;;;;;4961210;28;20666;-26
2021/12/05 06:20:25;;;;;;;2.33;1.20;;;23.20;43.30;;;;;;4978027;28;20254;-23
2021/12/05 06:22:51;;;;;;;1.57;1.00;;;23.00;43.10;;;;;;4978513;28;20610;-23
2021/12/05 06:25:22;;;;;;;1.90;1.00;;;23.00;43.30;;;;;;4961285;28;20212;-24
2021/12/05 06:27:53;;;;;;;2.03;1.10;;;23.00;43.20;;;;;;4978344;28;20228;-28
2021/12/05 06:38:54;;;;;;;2.53;1.10;;;23.60;42.60;;;;;;4981887;28;20209;-25
2021/12/05 06:41:36;;;;;;;2.17;1.10;;;23.50;42.70;;;;;;4964879;28;20203;-22
2021/12/05 06:46:38;;;;;;;1.63;1.00;;;23.10;43.00;;;;;;4981738;28;20237;-25
2021/12/05 06:49:04;;;;;;;1.60;1.00;;;23.00;43.10;;;;;;4981520;28;20205;-25
2021/12/05 06:51:30;;;;;;;2.67;1.10;;;22.70;43.30;;;;;;4965059;28;20219;-23
2021/12/05 06:53:57;;;;;;;1.27;0.90;;;22.50;43.50;;;;;;4964967;28;20201;-23
2021/12/05 06:56:24;;;;;;;2.10;0.90;;;22.30;43.80;;;;;;4981613;28;20213;-24
2021/12/05 06:58:54;;;;;;;1.20;1.10;;;22.00;44.10;;;;;;4981388;28;20229;-22
2021/12/05 07:01:21;;;;;;;1.83;1.13;;;21.80;44.40;;;;;;4981662;28;20443;-24
2021/12/05 07:03:49;;;;;;;2.23;1.10;;;21.50;44.70;;;;;;4964583;28;20603;-23
2021/12/05 07:06:25;;;;;;;2.63;0.90;;;21.30;44.90;;;;;;4963475;28;20221;-24
2021/12/05 07:08:54;;;;;;;1.93;1.13;;;21.10;45.20;;;;;;4981237;28;20214;-24
2021/12/05 07:11:28;;;;;;;1.23;0.90;;;20.80;45.40;;;;;;4964328;28;20213;-25
2021/12/05 07:21:47;;;;;;;1.50;1.00;;;19.90;46.70;;;;;;4981230;28;20271;-22
2021/12/05 07:40:28;;;;;;;1.63;0.90;;;23.50;42.60;;;;;;4980355;28;20239;-24
2021/12/05 07:42:55;;;;;;;1.07;0.80;;;23.50;42.50;;;;;;4980195;28;20197;-26
2021/12/05 07:45:29;;;;;;;2.10;1.00;;;23.30;42.60;;;;;;4963682;28;20647;-25
2021/12/05 07:47:55;;;;;;;1.80;1.00;;;23.20;42.70;;;;;;4980224;28;20209;-23
2021/12/05 07:50:41;;;;;;;1.17;1.00;;;23.40;42.60;;;;;;4964226;28;20223;-24
2021/12/05 07:53:15;;;;;;;1.70;1.20;;;23.50;42.50;;;;;;4980131;28;20195;-23
2021/12/05 07:55:43;;;;;;;1.83;0.97;;;23.30;42.40;;;;;;4963487;28;20183;-24
2021/12/05 07:58:42;;;;;;;1.77;0.90;;;23.30;42.60;;;;;;4963450;28;20216;-24
2021/12/05 08:15:10;;;;;;;1.17;0.90;;;22.60;42.90;;;;;;4979784;28;20214;-27
2021/12/05 08:17:33;;;;;;;1.77;1.00;;;22.30;43.20;;;;;;4978962;28;20307;-24
2021/12/05 08:19:59;;;;;;;1.93;0.90;;;22.00;43.60;;;;;;4979638;28;20237;-24
2021/12/05 08:22:26;;;;;;;0.90;0.80;;;21.90;43.80;;;;;;4962733;28;20499;-24
2021/12/05 08:24:52;;;;;;;1.40;1.00;;;21.80;43.90;;;;;;4980138;28;20202;-25
2021/12/05 08:27:17;;;;;;;1.43;0.90;;;21.50;44.10;;;;;;4962153;28;20473;-24
2021/12/05 08:29:51;;;;;;;1.67;0.73;;;21.50;44.30;;;;;;4980045;28;20286;-23
2021/12/05 08:36:03;;;;;;;1.23;0.80;;;21.00;44.60;;;;;;4946475;28;20217;-22
2021/12/05 08:43:43;;;;;;;1.70;1.00;;;21.30;44.80;;;;;;4979272;28;20314;-23
2021/12/05 09:24:48;;;;;;;1.50;1.00;;;22.90;43.00;;;;;;4978258;28;20267;-24
2021/12/05 10:13:34;;;;;;;2.93;0.87;;;21.70;45.30;;;;;;4977586;28;20225;-22
2021/12/05 10:16:21;;;;;;;2.13;1.03;;;21.50;45.40;;;;;;4960561;28;20245;-25
2021/12/05 10:35:34;;;;;;;0.97;0.90;;;23.30;43.70;;;;;;4977027;28;20229;-24
2021/12/05 10:38:10;;;;;;;2.20;1.17;;;23.10;43.50;;;;;;4956047;29;20199;-24
2021/12/05 10:40:46;;;;;;;3.07;0.87;;;23.00;43.80;;;;;;4955840;29;20270;-25
2021/12/05 10:43:22;;;;;;;2.40;1.00;;;23.00;43.80;;;;;;4939793;29;20211;-24
2021/12/05 10:46:15;;;;;;;1.03;0.80;;;23.10;43.70;;;;;;4939911;29;20261;-24
2021/12/05 10:48:51;;;;;;;2.13;1.03;;;23.40;43.50;;;;;;4953211;28;20260;-25
2021/12/05 10:51:27;;;;;;;3.33;0.97;;;23.20;43.70;;;;;;4955915;29;20184;-25
2021/12/05 10:54:02;;;;;;;1.97;1.00;;;23.20;43.70;;;;;;4940525;29;20211;-23
2021/12/05 10:56:33;;;;;;;2.60;0.90;;;23.40;43.60;;;;;;4940020;29;20210;-23
2021/12/05 10:59:02;;;;;;;1.27;0.90;;;23.50;43.50;;;;;;4956119;29;20218;-24
2021/12/05 11:01:36;;;;;;;5.07;1.30;;;23.50;43.60;;;;;;4956405;29;20816;-23
2021/12/05 11:04:13;;;;;;;3.87;1.50;;;23.40;43.70;;;;;;4940134;29;20222;-26
2021/12/05 11:06:50;;;;;;;5.53;1.77;;;23.30;43.80;;;;;;4955597;29;20215;-26
2021/12/05 11:09:21;;;;;;;6.93;3.00;;;23.20;44.00;;;;;;4969027;28;20190;-23
2021/12/05 11:11:51;;;;;;;5.37;2.67;;;23.10;44.20;;;;;;4976761;28;20199;-24
2021/12/05 11:14:25;;;;;;;6.27;2.60;;;22.90;44.40;;;;;;4960010;28;20587;-24
2021/12/05 11:16:50;;;;;;;5.83;3.10;;;22.80;44.50;;;;;;4960415;28;20201;-25
2021/12/05 11:19:30;;;;;;;6.43;3.23;;;22.60;44.70;;;;;;4963090;28;20203;-24
2021/12/05 11:22:23;;;;;;;8.40;3.50;;;22.50;45.00;;;;;;4980629;28;20187;-23
2021/12/05 11:24:53;;;;;;;7.20;3.63;;;22.30;45.20;;;;;;4980034;28;20463;-23
2021/12/05 11:27:24;;;;;;;6.87;3.60;;;22.10;45.40;;;;;;4963161;28;20207;-24
2021/12/05 11:30:33;;;;;;;9.73;3.80;;;21.90;45.60;;;;;;4963410;28;20202;-24
2021/12/05 11:33:20;;;;;;;8.57;3.90;;;21.70;45.90;;;;;;4963490;28;20550;-26
2021/12/05 11:35:52;;;;;;;9.67;4.57;;;21.40;46.10;;;;;;4980392;28;20257;-25
2021/12/05 11:38:27;;;;;;;7.90;4.47;;;21.30;46.40;;;;;;4963136;28;20220;-23
2021/12/05 11:41:02;;;;;;;8.63;4.60;;;21.10;46.60;;;;;;4962950;28;20784;-24
2021/12/05 11:43:37;;;;;;;5.73;3.73;;;20.90;46.90;;;;;;4980704;28;20205;-26
2021/12/05 11:46:13;;;;;;;6.57;3.67;;;20.70;47.20;;;;;;4962829;28;20216;-22
2021/12/05 11:48:47;;;;;;;10.67;4.07;;;20.70;47.50;;;;;;4979774;28;20212;-24
2021/12/05 11:51:19;;;;;;;9.77;4.30;;;20.80;47.50;;;;;;4962965;28;20703;-23
2021/12/05 11:53:52;;;;;;;9.07;4.47;;;21.10;47.30;;;;;;4963231;28;20216;-24
2021/12/05 11:56:35;;;;;;;7.13;3.80;;;21.40;46.80;;;;;;4979773;28;20190;-23
2021/12/05 11:59:20;;;;;;;7.47;3.93;;;22.00;46.20;;;;;;4964552;28;20199;-24
2021/12/05 12:02:04;;;;;;;7.10;3.67;;;22.70;45.30;;;;;;4979715;28;20638;-24
2021/12/05 12:04:52;;;;;;;8.00;3.90;;;23.20;44.60;;;;;;4963083;28;20205;-25
2021/12/05 12:07:35;;;;;;;7.77;3.90;;;23.60;44.10;;;;;;4962284;28;20288;-24
2021/12/05 12:10:27;;;;;;;8.73;3.90;;;23.70;43.70;;;;;;4962918;28;20197;-22
2021/12/05 12:13:06;;;;;;;9.67;4.50;;;23.80;43.60;;;;;;4979557;28;20607;-23
2021/12/05 12:15:32;;;;;;;7.87;4.50;;;23.80;43.60;;;;;;4963435;28;20658;-25
2021/12/05 12:18:08;;;;;;;8.13;4.37;;;23.60;43.70;;;;;;4979660;28;20604;-24
2021/12/05 12:20:36;;;;;;;9.47;4.57;;;23.70;43.80;;;;;;4979234;28;20579;-23
2021/12/05 12:23:03;;;;;;;10.17;4.20;;;23.80;43.70;;;;;;4962311;28;20199;-23
2021/12/05 12:25:33;;;;;;;7.00;4.03;;;23.60;43.60;;;;;;4978001;28;20217;-26
2021/12/05 12:27:59;;;;;;;10.80;4.27;;;23.50;43.80;;;;;;4979518;28;20207;-23
2021/12/05 12:30:30;;;;;;;9.43;4.37;;;23.50;43.70;;;;;;4961859;28;20213;-24
2021/12/05 12:33:06;;;;;;;9.57;4.10;;;23.40;43.70;;;;;;4961633;28;20490;-22
2021/12/05 12:35:34;;;;;;;9.07;4.27;;;23.40;43.80;;;;;;4978647;28;20211;-24
2021/12/05 12:38:09;;;;;;;6.10;3.77;;;23.10;44.00;;;;;;4962032;28;20204;-25
2021/12/05 12:40:40;;;;;;;5.97;3.70;;;23.00;44.60;;;;;;4978458;28;20278;-24
2021/12/05 12:43:09;;;;;;;6.50;3.67;;;22.90;44.60;;;;;;4978906;28;20197;-23
2021/12/05 12:45:41;;;;;;;7.53;3.67;;;22.70;44.40;;;;;;4977961;28;20206;-24
2021/12/05 12:48:16;;;;;;;5.00;3.47;;;22.50;44.70;;;;;;4977983;28;20747;-25
2021/12/05 12:50:51;;;;;;;5.03;3.10;;;22.20;44.80;;;;;;4978667;28;20206;-26
2021/12/05 12:53:27;;;;;;;5.73;3.40;;;22.00;45.20;;;;;;4978400;28;20190;-22
2021/12/05 12:56:05;;;;;;;6.63;3.90;;;21.90;45.30;;;;;;4979080;28;20190;-24
2021/12/05 12:58:49;;;;;;;7.43;3.70;;;21.80;45.60;;;;;;4961412;28;20179;-24
2021/12/05 13:01:48;;;;;;;4.40;3.40;;;21.70;45.70;;;;;;4960819;28;20196;-21
2021/12/05 13:10:09;;;;;;;4.47;3.27;;;21.30;46.30;;;;;;4976949;28;20492;-24
2021/12/05 13:12:45;;;;;;;4.07;2.90;;;21.20;46.50;;;;;;4961429;28;20197;-23
2021/12/05 13:15:34;;;;;;;5.10;2.90;;;21.20;46.40;;;;;;4960737;28;20264;-21
2021/12/05 13:18:08;;;;;;;5.33;2.97;;;21.40;46.30;;;;;;4978014;28;20194;-22
2021/12/05 13:20:43;;;;;;;4.63;2.90;;;21.70;46.00;;;;;;4977815;28;20213;-23
2021/12/05 13:23:19;;;;;;;4.47;2.77;;;22.00;45.50;;;;;;4961793;28;20207;-23
2021/12/05 13:25:57;;;;;;;3.67;2.77;;;22.40;45.20;;;;;;4960826;28;20215;-25
2021/12/05 13:28:33;;;;;;;3.80;2.70;;;22.70;44.80;;;;;;4977768;28;20201;-23
2021/12/05 13:31:00;;;;;;;4.07;2.60;;;22.90;44.50;;;;;;4961338;28;20194;-24
2021/12/05 13:33:31;;;;;;;3.77;2.40;;;23.30;44.10;;;;;;4960805;28;21059;-25
2021/12/05 13:35:58;;;;;;;4.50;2.70;;;23.60;43.70;;;;;;4977507;28;20198;-24
2021/12/05 13:38:39;;;;;;;6.20;2.97;;;23.90;43.40;;;;;;4977620;28;20218;-24
2021/12/05 13:41:14;;;;;;;4.73;2.50;;;23.90;43.30;;;;;;4977262;28;20186;-25
2021/12/05 13:43:41;;;;;;;2.90;2.23;;;23.90;43.20;;;;;;4977099;28;20252;-27
2021/12/05 13:46:30;;;;;;;3.47;2.13;;;23.90;43.10;;;;;;4960868;28;20214;-23
2021/12/05 13:48:57;;;;;;;3.97;2.50;;;23.70;43.20;;;;;;4960350;28;20747;-24
2021/12/05 13:51:23;;;;;;;3.37;2.33;;;23.50;43.40;;;;;;4960494;28;20179;-24
2021/12/05 13:53:52;;;;;;;3.00;2.30;;;23.10;43.70;;;;;;4977499;28;20202;-23
2021/12/05 13:56:27;;;;;;;2.70;2.17;;;22.90;44.00;;;;;;4960287;28;20198;-24
2021/12/05 13:59:04;;;;;;;2.73;2.13;;;22.60;44.30;;;;;;4960686;28;20617;-24
2021/12/05 14:01:32;;;;;;;2.83;2.20;;;22.30;44.60;;;;;;4960007;28;20282;-24
2021/12/05 14:04:19;;;;;;;3.03;1.97;;;22.00;45.10;;;;;;4977379;28;20201;-26
2021/12/05 14:07:01;;;;;;;2.97;2.00;;;21.70;45.40;;;;;;4976839;28;20617;-25
2021/12/05 14:09:51;;;;;;;3.60;2.10;;;21.50;45.70;;;;;;4960494;28;20309;-25
2021/12/05 14:12:30;;;;;;;1.93;1.73;;;21.30;46.00;;;;;;4960613;28;20208;-26
2021/12/05 14:15:00;;;;;;;3.23;1.97;;;21.20;46.20;;;;;;4960927;28;20212;-24
2021/12/05 14:17:35;;;;;;;1.97;1.50;;;21.40;46.10;;;;;;4959480;28;20185;-20
2021/12/05 14:20:13;;;;;;;3.17;2.00;;;21.50;45.80;;;;;;4976366;28;20220;-23
2021/12/05 14:22:44;;;;;;;2.63;1.70;;;21.80;45.60;;;;;;4960819;28;20202;-24
2021/12/05 14:25:13;;;;;;;1.90;1.63;;;22.10;45.20;;;;;;4960133;28;20220;-23
2021/12/05 14:27:52;;;;;;;4.60;1.90;;;22.60;44.80;;;;;;4959755;28;20222;-25
2021/12/05 14:30:20;;;;;;;2.23;1.20;;;23.00;44.10;;;;;;4977380;28;20201;-23
2021/12/05 14:32:52;;;;;;;2.93;1.40;;;23.40;43.80;;;;;;4960150;28;20183;-24
2021/12/05 14:35:28;;;;;;;2.27;1.73;;;23.80;43.40;;;;;;4960524;28;20217;-26
2021/12/05 14:37:54;;;;;;;2.33;1.67;;;24.10;42.80;;;;;;4976697;28;20198;-23
2021/12/05 14:40:30;;;;;;;2.33;1.63;;;24.30;42.50;;;;;;4977291;28;20201;-24
2021/12/05 14:42:59;;;;;;;3.23;1.57;;;24.30;42.50;;;;;;4959583;28;20221;-25
2021/12/05 14:45:31;;;;;;;2.67;1.60;;;24.10;42.50;;;;;;4959978;28;20175;-24
2021/12/05 14:48:02;;;;;;;2.73;1.73;;;24.10;42.60;;;;;;4959888;28;20210;-25
2021/12/05 14:50:31;;;;;;;2.63;1.60;;;24.10;42.60;;;;;;4959916;28;20202;-25
2021/12/05 14:53:00;;;;;;;3.73;1.80;;;24.20;42.60;;;;;;4963381;28;20221;-22
2021/12/05 14:55:28;;;;;;;2.93;1.60;;;24.10;42.60;;;;;;4980454;28;20187;-24
2021/12/05 14:57:57;;;;;;;3.20;1.67;;;23.90;42.60;;;;;;4980491;28;20293;-27
2021/12/05 15:00:36;;;;;;;4.77;1.67;;;23.70;42.80;;;;;;4980344;28;20202;-23
2021/12/05 15:03:03;;;;;;;6.00;1.80;;;23.50;43.00;;;;;;4980744;28;20223;-23
2021/12/05 15:05:29;;;;;;;7.10;2.00;;;23.40;43.20;;;;;;4980107;28;20186;-27
2021/12/05 15:08:05;;;;;;;3.67;1.73;;;23.20;43.40;;;;;;4963566;28;20237;-24
2021/12/05 15:10:32;;;;;;;4.73;1.90;;;23.00;43.60;;;;;;4963051;28;20232;-24
2021/12/05 15:12:57;;;;;;;4.80;1.70;;;22.80;43.90;;;;;;4962931;28;20200;-24
2021/12/05 15:15:25;;;;;;;5.20;1.83;;;22.60;44.00;;;;;;4963112;28;20210;-25
2021/12/05 15:17:51;;;;;;;3.17;1.90;;;22.50;44.30;;;;;;4963378;28;20203;-23
2021/12/05 15:20:21;;;;;;;3.80;1.53;;;22.30;44.40;;;;;;4963025;28;20231;-27
2021/12/05 15:22:50;;;;;;;4.60;1.50;;;22.20;44.60;;;;;;4963327;28;20206;-23
2021/12/05 15:25:20;;;;;;;4.97;1.83;;;22.10;44.70;;;;;;4963351;28;20254;-25
2021/12/05 15:27:47;;;;;;;3.60;2.00;;;21.90;45.00;;;;;;4962640;28;20258;-25
2021/12/05 15:30:26;;;;;;;4.90;1.77;;;21.80;45.20;;;;;;4963423;28;20223;-25
2021/12/05 15:32:59;;;;;;;4.93;1.90;;;21.60;45.30;;;;;;4979571;28;20651;-23
2021/12/05 15:35:25;;;;;;;3.13;1.70;;;21.50;45.50;;;;;;4980233;28;20542;-24
2021/12/05 15:38:01;;;;;;;3.77;1.90;;;21.40;45.70;;;;;;4962647;28;20203;-24
2021/12/05 15:40:30;;;;;;;7.33;1.93;;;21.50;45.70;;;;;;4985761;28;20620;-27
2021/12/05 15:43:05;;;;;;;7.60;2.10;;;21.90;45.60;;;;;;4987782;28;20213;-25
2021/12/05 15:45:32;;;;;;;2.57;1.77;;;22.00;45.30;;;;;;4988494;28;20589;-23
2021/12/05 15:47:58;;;;;;;4.87;1.67;;;22.50;45.10;;;;;;4998455;28;20222;-26
2021/12/05 15:50:30;;;;;;;3.93;1.80;;;23.00;44.50;;;;;;4998751;28;20294;-25
2021/12/05 15:53:10;;;;;;;6.00;2.00;;;23.40;43.90;;;;;;4967039;28;20181;-25
2021/12/05 15:55:43;;;;;;;5.13;2.23;;;23.70;43.60;;;;;;4979439;28;20191;-24
2021/12/05 15:58:12;;;;;;;5.50;2.00;;;23.90;43.40;;;;;;4979807;28;20486;-25
2021/12/05 16:00:41;;;;;;;3.47;1.90;;;24.10;43.10;;;;;;4962395;28;20199;-23
2021/12/05 16:03:12;;;;;;;2.87;1.77;;;24.30;42.80;;;;;;4978543;28;20214;-25
2021/12/05 16:05:40;;;;;;;5.23;1.90;;;24.40;42.70;;;;;;4960257;29;20195;-24
2021/12/05 16:08:18;;;;;;;4.43;2.00;;;24.10;42.80;;;;;;4943164;29;20258;-23
2021/12/05 16:10:47;;;;;;;3.23;1.70;;;24.00;43.10;;;;;;4959475;29;20195;-23
2021/12/05 16:13:21;;;;;;;4.37;2.07;;;23.90;43.20;;;;;;4959797;29;20238;-24
2021/12/05 16:15:55;;;;;;;5.37;2.10;;;23.80;43.30;;;;;;4955374;28;20193;-24
2021/12/05 16:18:31;;;;;;;4.80;1.93;;;23.80;43.40;;;;;;4997974;28;20268;-24
2021/12/05 16:21:02;;;;;;;5.03;2.00;;;23.60;43.50;;;;;;4965583;28;20200;-23
2021/12/05 16:23:32;;;;;;;4.47;1.97;;;23.50;43.60;;;;;;4975160;28;20194;-22
2021/12/05 16:26:13;;;;;;;4.53;1.90;;;23.40;43.80;;;;;;4962621;28;20203;-24
2021/12/05 16:28:44;;;;;;;5.47;2.07;;;23.20;44.00;;;;;;4978758;28;20212;-22
2021/12/05 16:31:18;;;;;;;5.07;2.00;;;23.00;44.20;;;;;;4961279;28;20282;-25
2021/12/05 16:34:04;;;;;;;4.67;2.00;;;22.80;44.40;;;;;;4993452;28;20198;-20
2021/12/05 16:36:38;;;;;;;5.37;2.40;;;22.60;44.60;;;;;;4959252;29;20203;-25
2021/12/05 16:39:19;;;;;;;5.33;2.20;;;22.40;44.90;;;;;;4942234;29;20328;-23
2021/12/05 16:41:54;;;;;;;3.63;2.50;;;22.10;45.20;;;;;;4956924;29;20199;-25
2021/12/05 16:44:24;;;;;;;4.33;3.00;;;22.00;45.60;;;;;;4943624;29;20591;-20
2021/12/05 16:46:55;;;;;;;5.60;3.00;;;21.80;45.90;;;;;;4959728;29;20222;-23
2021/12/05 16:49:28;;;;;;;7.10;3.23;;;21.50;46.40;;;;;;4958868;29;20649;-25
2021/12/05 16:52:01;;;;;;;5.07;3.23;;;21.40;46.70;;;;;;4959163;29;20191;-24
2021/12/05 16:54:43;;;;;;;5.33;3.87;;;21.10;47.10;;;;;;4942506;29;20276;-23
2021/12/05 16:57:12;;;;;;;6.03;3.70;;;20.90;47.40;;;;;;4962851;28;20741;-23
2021/12/05 16:59:53;;;;;;;6.37;3.80;;;20.70;47.90;;;;;;4961255;28;20190;-24
2021/12/05 17:02:34;;;;;;;5.07;3.80;;;20.40;48.30;;;;;;4988646;28;20640;-23
2021/12/05 17:05:06;;;;;;;6.60;3.60;;;20.40;48.60;;;;;;4961884;28;20186;-23
2021/12/05 17:08:12;;;;;;;4.57;3.50;;;21.10;48.30;;;;;;4977946;28;20223;-20
2021/12/05 17:10:45;;;;;;;5.73;3.53;;;22.50;46.80;;;;;;4978391;28;20201;-23
2021/12/05 17:13:36;;;;;;;5.40;3.30;;;23.40;45.40;;;;;;4978214;28;20206;-25
2021/12/05 17:16:08;;;;;;;5.53;3.40;;;24.20;44.30;;;;;;4977231;28;20205;-25
2021/12/05 17:18:47;;;;;;;5.10;3.30;;;24.80;43.60;;;;;;4977707;28;20199;-21
2021/12/05 17:21:23;;;;;;;3.50;3.10;;;24.60;43.30;;;;;;4978170;28;20237;-22
2021/12/05 17:23:59;;;;;;;4.83;3.00;;;24.50;43.30;;;;;;4978008;28;20198;-21
2021/12/05 17:27:00;;;;;;;4.17;3.17;;;24.60;43.30;;;;;;4978042;28;20253;-22
2021/12/05 17:29:34;;;;;;;3.77;2.90;;;24.60;43.30;;;;;;4944760;28;20210;-27
2021/12/05 17:32:12;;;;;;;4.40;3.00;;;24.60;43.60;;;;;;4977683;28;20151;-25
2021/12/05 17:34:44;;;;;;;5.40;3.03;;;24.50;43.30;;;;;;4960562;28;20289;-22
2021/12/05 17:37:19;;;;;;;4.53;2.90;;;24.30;43.50;;;;;;4960850;28;20209;-23
2021/12/05 17:39:46;;;;;;;5.93;3.03;;;24.00;43.80;;;;;;4972490;28;20620;-26
2021/12/05 17:42:19;;;;;;;5.17;3.10;;;23.80;44.80;;;;;;4976275;28;20186;-23
2021/12/05 17:44:48;;;;;;;6.83;3.00;;;23.40;45.10;;;;;;4960190;28;20210;-24
2021/12/05 17:47:16;;;;;;;5.83;3.10;;;23.30;45.30;;;;;;4959817;28;20230;-24
2021/12/05 17:49:45;;;;;;;4.70;3.00;;;23.10;45.40;;;;;;4960567;28;20284;-24
2021/12/05 17:52:13;;;;;;;5.43;3.20;;;22.90;45.70;;;;;;4978078;28;20195;-23
2021/12/05 17:54:53;;;;;;;5.60;2.80;;;22.60;46.00;;;;;;4976551;28;20191;-26
2021/12/05 17:57:30;;;;;;;5.90;3.13;;;22.50;46.20;;;;;;4960215;28;20667;-24
2021/12/05 18:00:12;;;;;;;5.33;2.83;;;22.20;46.40;;;;;;4977108;28;20675;-25
2021/12/05 18:02:44;;;;;;;6.70;2.80;;;21.90;46.60;;;;;;4976825;28;20853;-25
2021/12/05 18:05:44;;;;;;;6.60;2.80;;;21.80;47.00;;;;;;4960341;28;20198;-24
2021/12/05 18:08:17;;;;;;;5.87;2.93;;;21.50;47.30;;;;;;4947943;28;20531;-22
2021/12/05 18:10:49;;;;;;;6.07;2.63;;;21.30;47.60;;;;;;4977541;28;20297;-26
2021/12/05 18:13:15;;;;;;;4.47;2.70;;;21.10;47.80;;;;;;4960475;28;20209;-23
2021/12/05 18:15:48;;;;;;;7.83;2.70;;;20.90;48.20;;;;;;4960556;28;20639;-23
2021/12/05 18:18:16;;;;;;;4.13;2.70;;;20.70;48.50;;;;;;4959815;28;20201;-26
2021/12/05 18:20:43;;;;;;;6.07;2.70;;;20.50;48.90;;;;;;4976296;28;20616;-22
2021/12/05 18:23:10;;;;;;;7.77;2.97;;;20.50;49.10;;;;;;4976947;28;20575;-23
2021/12/05 18:25:37;;;;;;;4.50;2.70;;;20.70;49.10;;;;;;4976832;28;20199;-24